sensor_id;sensor_type;location;lat;lon;timestamp;temperature;humidity
76384;SHT30;65204;48.606;7.598;2023-03-16T00:00:22;5.67;66.86
76384;SHT30;65204;48.606;7.598;2023-03-16T00:00:52;5.68;66.72
76384;SHT30;65204;48.606;7.598;2023-03-16T00:01:22;5.68;66.62
76384;SHT30;65204;48.606;7.598;2023-03-16T00:01:53;5.67;66.56
76384;SHT30;65204;48.606;7.598;2023-03-16T00:02:23;5.70;66.53
76384;SHT30;65204;48.606;7.598;2023-03-16T00:02:53;5.67;66.52
76384;SHT30;65204;48.606;7.598;2023-03-16T00:03:24;5.64;66.52
76384;SHT30;65204;48.606;7.598;2023-03-16T00:03:54;5.64;66.66
76384;SHT30;65204;48.606;7.598;2023-03-16T00:04:24;5.64;66.74
76384;SHT30;65204;48.606;7.598;2023-03-16T00:04:55;5.63;66.80
76384;SHT30;65204;48.606;7.598;2023-03-16T00:05:25;5.64;66.94
76384;SHT30;65204;48.606;7.598;2023-03-16T00:05:55;5.61;67.01
76384;SHT30;65204;48.606;7.598;2023-03-16T00:06:26;5.58;67.06
76384;SHT30;65204;48.606;7.598;2023-03-16T00:06:57;5.57;66.95
76384;SHT30;65204;48.606;7.598;2023-03-16T00:07:28;5.57;66.83
76384;SHT30;65204;48.606;7.598;2023-03-16T00:07:58;5.57;66.72
76384;SHT30;65204;48.606;7.598;2023-03-16T00:08:29;5.54;66.96
76384;SHT30;65204;48.606;7.598;2023-03-16T00:08:59;5.56;66.98
76384;SHT30;65204;48.606;7.598;2023-03-16T00:09:29;5.57;67.00
76384;SHT30;65204;48.606;7.598;2023-03-16T00:10:00;5.57;66.82
76384;SHT30;65204;48.606;7.598;2023-03-16T00:10:30;5.56;66.85
76384;SHT30;65204;48.606;7.598;2023-03-16T00:11:01;5.58;66.77
76384;SHT30;65204;48.606;7.598;2023-03-16T00:11:32;5.57;66.69
76384;SHT30;65204;48.606;7.598;2023-03-16T00:12:02;5.56;66.66
76384;SHT30;65204;48.606;7.598;2023-03-16T00:12:33;5.56;66.65
76384;SHT30;65204;48.606;7.598;2023-03-16T00:13:03;5.54;66.67
76384;SHT30;65204;48.606;7.598;2023-03-16T00:13:34;5.54;66.75
76384;SHT30;65204;48.606;7.598;2023-03-16T00:14:04;5.51;66.97
76384;SHT30;65204;48.606;7.598;2023-03-16T00:14:34;5.53;66.94
76384;SHT30;65204;48.606;7.598;2023-03-16T00:15:05;5.51;67.07
76384;SHT30;65204;48.606;7.598;2023-03-16T00:15:36;5.50;67.23
76384;SHT30;65204;48.606;7.598;2023-03-16T00:16:06;5.48;67.15
76384;SHT30;65204;48.606;7.598;2023-03-16T00:16:36;5.47;67.05
76384;SHT30;65204;48.606;7.598;2023-03-16T00:17:07;5.48;66.95
76384;SHT30;65204;48.606;7.598;2023-03-16T00:17:37;5.46;66.94
76384;SHT30;65204;48.606;7.598;2023-03-16T00:18:08;5.44;67.11
76384;SHT30;65204;48.606;7.598;2023-03-16T00:18:38;5.46;67.16
76384;SHT30;65204;48.606;7.598;2023-03-16T00:19:08;5.42;67.05
76384;SHT30;65204;48.606;7.598;2023-03-16T00:19:39;5.40;67.11
76384;SHT30;65204;48.606;7.598;2023-03-16T00:20:09;5.36;67.10
76384;SHT30;65204;48.606;7.598;2023-03-16T00:20:41;5.33;66.97
76384;SHT30;65204;48.606;7.598;2023-03-16T00:21:12;5.35;66.84
76384;SHT30;65204;48.606;7.598;2023-03-16T00:21:43;5.35;66.91
76384;SHT30;65204;48.606;7.598;2023-03-16T00:22:14;5.33;66.95
76384;SHT30;65204;48.606;7.598;2023-03-16T00:22:45;5.33;67.12
76384;SHT30;65204;48.606;7.598;2023-03-16T00:23:16;5.32;67.15
76384;SHT30;65204;48.606;7.598;2023-03-16T00:23:46;5.33;67.16
76384;SHT30;65204;48.606;7.598;2023-03-16T00:24:17;5.35;67.13
76384;SHT30;65204;48.606;7.598;2023-03-16T00:24:48;5.33;67.09
76384;SHT30;65204;48.606;7.598;2023-03-16T00:25:19;5.35;67.05
76384;SHT30;65204;48.606;7.598;2023-03-16T00:25:49;5.33;67.02
76384;SHT30;65204;48.606;7.598;2023-03-16T00:26:22;5.33;67.12
76384;SHT30;65204;48.606;7.598;2023-03-16T00:26:54;5.32;67.25
76384;SHT30;65204;48.606;7.598;2023-03-16T00:27:25;5.26;67.34
76384;SHT30;65204;48.606;7.598;2023-03-16T00:27:55;5.27;67.32
76384;SHT30;65204;48.606;7.598;2023-03-16T00:28:27;5.27;67.24
76384;SHT30;65204;48.606;7.598;2023-03-16T00:28:57;5.25;67.29
76384;SHT30;65204;48.606;7.598;2023-03-16T00:29:28;5.25;67.36
76384;SHT30;65204;48.606;7.598;2023-03-16T00:29:58;5.26;67.42
76384;SHT30;65204;48.606;7.598;2023-03-16T00:30:29;5.26;67.45
76384;SHT30;65204;48.606;7.598;2023-03-16T00:31:06;5.25;67.50
76384;SHT30;65204;48.606;7.598;2023-03-16T00:31:38;5.23;67.53
76384;SHT30;65204;48.606;7.598;2023-03-16T00:32:09;5.22;67.57
76384;SHT30;65204;48.606;7.598;2023-03-16T00:32:40;5.19;67.58
76384;SHT30;65204;48.606;7.598;2023-03-16T00:33:11;5.23;67.65
76384;SHT30;65204;48.606;7.598;2023-03-16T00:33:41;5.25;67.64
76384;SHT30;65204;48.606;7.598;2023-03-16T00:34:12;5.20;67.64
76384;SHT30;65204;48.606;7.598;2023-03-16T00:34:44;5.23;67.69
76384;SHT30;65204;48.606;7.598;2023-03-16T00:35:14;5.22;67.72
76384;SHT30;65204;48.606;7.598;2023-03-16T00:35:46;5.23;67.66
76384;SHT30;65204;48.606;7.598;2023-03-16T00:36:19;5.25;67.74
76384;SHT30;65204;48.606;7.598;2023-03-16T00:36:51;5.22;67.81
76384;SHT30;65204;48.606;7.598;2023-03-16T00:37:25;5.22;67.69
76384;SHT30;65204;48.606;7.598;2023-03-16T00:37:56;5.20;67.76
76384;SHT30;65204;48.606;7.598;2023-03-16T00:38:28;5.20;67.85
76384;SHT30;65204;48.606;7.598;2023-03-16T00:38:58;5.20;67.81
76384;SHT30;65204;48.606;7.598;2023-03-16T00:39:29;5.20;67.83
76384;SHT30;65204;48.606;7.598;2023-03-16T00:40:00;5.22;67.78
76384;SHT30;65204;48.606;7.598;2023-03-16T00:40:31;5.22;67.80
76384;SHT30;65204;48.606;7.598;2023-03-16T00:41:05;5.19;67.81
76384;SHT30;65204;48.606;7.598;2023-03-16T00:41:36;5.20;67.89
76384;SHT30;65204;48.606;7.598;2023-03-16T00:42:07;5.22;67.90
76384;SHT30;65204;48.606;7.598;2023-03-16T00:42:38;5.20;67.91
76384;SHT30;65204;48.606;7.598;2023-03-16T00:43:09;5.20;67.83
76384;SHT30;65204;48.606;7.598;2023-03-16T00:43:40;5.19;67.94
76384;SHT30;65204;48.606;7.598;2023-03-16T00:44:11;5.19;67.88
76384;SHT30;65204;48.606;7.598;2023-03-16T00:44:42;5.23;67.86
76384;SHT30;65204;48.606;7.598;2023-03-16T00:45:12;5.20;67.91
76384;SHT30;65204;48.606;7.598;2023-03-16T00:45:43;5.23;67.88
76384;SHT30;65204;48.606;7.598;2023-03-16T00:46:15;5.19;67.83
76384;SHT30;65204;48.606;7.598;2023-03-16T00:46:46;5.19;67.77
76384;SHT30;65204;48.606;7.598;2023-03-16T00:47:16;5.19;67.74
76384;SHT30;65204;48.606;7.598;2023-03-16T00:47:46;5.18;67.75
76384;SHT30;65204;48.606;7.598;2023-03-16T00:48:16;5.19;67.84
76384;SHT30;65204;48.606;7.598;2023-03-16T00:48:47;5.19;67.82
76384;SHT30;65204;48.606;7.598;2023-03-16T00:49:18;5.19;67.74
76384;SHT30;65204;48.606;7.598;2023-03-16T00:49:48;5.20;67.86
76384;SHT30;65204;48.606;7.598;2023-03-16T00:50:19;5.22;67.79
76384;SHT30;65204;48.606;7.598;2023-03-16T00:50:51;5.22;67.74
76384;SHT30;65204;48.606;7.598;2023-03-16T00:51:23;5.20;67.61
76384;SHT30;65204;48.606;7.598;2023-03-16T00:51:53;5.20;67.58
76384;SHT30;65204;48.606;7.598;2023-03-16T00:52:24;5.20;67.76
76384;SHT30;65204;48.606;7.598;2023-03-16T00:52:56;5.20;67.87
76384;SHT30;65204;48.606;7.598;2023-03-16T00:53:27;5.18;67.95
76384;SHT30;65204;48.606;7.598;2023-03-16T00:53:57;5.19;67.93
76384;SHT30;65204;48.606;7.598;2023-03-16T00:54:28;5.20;67.73
76384;SHT30;65204;48.606;7.598;2023-03-16T00:54:59;5.18;67.75
76384;SHT30;65204;48.606;7.598;2023-03-16T00:55:29;5.19;67.66
76384;SHT30;65204;48.606;7.598;2023-03-16T00:55:59;5.20;67.49
76384;SHT30;65204;48.606;7.598;2023-03-16T00:56:33;5.16;67.45
76384;SHT30;65204;48.606;7.598;2023-03-16T00:57:03;5.19;67.34
76384;SHT30;65204;48.606;7.598;2023-03-16T00:57:33;5.18;67.28
76384;SHT30;65204;48.606;7.598;2023-03-16T00:58:04;5.16;67.27
76384;SHT30;65204;48.606;7.598;2023-03-16T00:58:36;5.13;67.25
76384;SHT30;65204;48.606;7.598;2023-03-16T00:59:07;5.13;67.26
76384;SHT30;65204;48.606;7.598;2023-03-16T00:59:38;5.13;67.34
76384;SHT30;65204;48.606;7.598;2023-03-16T01:00:09;5.15;67.36
76384;SHT30;65204;48.606;7.598;2023-03-16T01:00:42;5.12;67.36
76384;SHT30;65204;48.606;7.598;2023-03-16T01:01:15;5.11;67.32
76384;SHT30;65204;48.606;7.598;2023-03-16T01:01:46;5.13;67.32
76384;SHT30;65204;48.606;7.598;2023-03-16T01:02:17;5.09;67.44
76384;SHT30;65204;48.606;7.598;2023-03-16T01:02:49;5.11;67.38
76384;SHT30;65204;48.606;7.598;2023-03-16T01:03:19;5.09;67.65
76384;SHT30;65204;48.606;7.598;2023-03-16T01:03:49;5.09;67.66
76384;SHT30;65204;48.606;7.598;2023-03-16T01:04:21;5.11;67.67
76384;SHT30;65204;48.606;7.598;2023-03-16T01:04:52;5.08;67.68
76384;SHT30;65204;48.606;7.598;2023-03-16T01:05:23;5.08;67.67
76384;SHT30;65204;48.606;7.598;2023-03-16T01:05:53;5.06;67.64
76384;SHT30;65204;48.606;7.598;2023-03-16T01:06:28;5.09;67.45
76384;SHT30;65204;48.606;7.598;2023-03-16T01:06:59;5.08;67.53
76384;SHT30;65204;48.606;7.598;2023-03-16T01:07:29;5.06;67.70
76384;SHT30;65204;48.606;7.598;2023-03-16T01:08:01;5.00;67.65
76384;SHT30;65204;48.606;7.598;2023-03-16T01:08:33;5.00;67.70
76384;SHT30;65204;48.606;7.598;2023-03-16T01:09:03;5.02;67.73
76384;SHT30;65204;48.606;7.598;2023-03-16T01:09:34;4.99;67.76
76384;SHT30;65204;48.606;7.598;2023-03-16T01:10:08;5.02;67.81
76384;SHT30;65204;48.606;7.598;2023-03-16T01:10:38;4.97;67.95
76384;SHT30;65204;48.606;7.598;2023-03-16T01:11:12;4.99;67.95
76384;SHT30;65204;48.606;7.598;2023-03-16T01:11:45;4.99;67.88
76384;SHT30;65204;48.606;7.598;2023-03-16T01:12:19;4.97;67.80
76384;SHT30;65204;48.606;7.598;2023-03-16T01:12:50;4.99;67.96
76384;SHT30;65204;48.606;7.598;2023-03-16T01:13:25;4.96;67.93
76384;SHT30;65204;48.606;7.598;2023-03-16T01:13:55;4.97;68.08
76384;SHT30;65204;48.606;7.598;2023-03-16T01:14:26;4.96;68.11
76384;SHT30;65204;48.606;7.598;2023-03-16T01:14:56;4.95;68.04
76384;SHT30;65204;48.606;7.598;2023-03-16T01:15:27;4.96;67.90
76384;SHT30;65204;48.606;7.598;2023-03-16T01:15:59;4.93;67.98
76384;SHT30;65204;48.606;7.598;2023-03-16T01:16:29;4.91;68.06
76384;SHT30;65204;48.606;7.598;2023-03-16T01:17:04;4.92;68.29
76384;SHT30;65204;48.606;7.598;2023-03-16T01:17:37;4.91;68.36
76384;SHT30;65204;48.606;7.598;2023-03-16T01:18:07;4.91;68.22
76384;SHT30;65204;48.606;7.598;2023-03-16T01:18:38;4.91;68.20
76384;SHT30;65204;48.606;7.598;2023-03-16T01:19:09;4.95;68.15
76384;SHT30;65204;48.606;7.598;2023-03-16T01:19:42;4.95;68.17
76384;SHT30;65204;48.606;7.598;2023-03-16T01:20:12;4.91;68.27
76384;SHT30;65204;48.606;7.598;2023-03-16T01:20:45;4.96;68.28
76384;SHT30;65204;48.606;7.598;2023-03-16T01:21:20;4.95;68.21
76384;SHT30;65204;48.606;7.598;2023-03-16T01:21:50;4.92;68.31
76384;SHT30;65204;48.606;7.598;2023-03-16T01:22:21;4.92;68.21
76384;SHT30;65204;48.606;7.598;2023-03-16T01:22:51;4.93;68.15
76384;SHT30;65204;48.606;7.598;2023-03-16T01:23:22;4.92;68.16
76384;SHT30;65204;48.606;7.598;2023-03-16T01:23:52;4.89;68.31
76384;SHT30;65204;48.606;7.598;2023-03-16T01:24:23;4.88;68.27
76384;SHT30;65204;48.606;7.598;2023-03-16T01:24:53;4.91;68.42
76384;SHT30;65204;48.606;7.598;2023-03-16T01:25:24;4.88;68.28
76384;SHT30;65204;48.606;7.598;2023-03-16T01:25:55;4.88;68.31
76384;SHT30;65204;48.606;7.598;2023-03-16T01:26:26;4.89;68.43
76384;SHT30;65204;48.606;7.598;2023-03-16T01:26:57;4.86;68.48
76384;SHT30;65204;48.606;7.598;2023-03-16T01:27:27;4.88;68.51
76384;SHT30;65204;48.606;7.598;2023-03-16T01:27:57;4.88;68.51
76384;SHT30;65204;48.606;7.598;2023-03-16T01:28:29;4.89;68.40
76384;SHT30;65204;48.606;7.598;2023-03-16T01:29:01;4.89;68.43
76384;SHT30;65204;48.606;7.598;2023-03-16T01:29:31;4.92;68.47
76384;SHT30;65204;48.606;7.598;2023-03-16T01:30:03;4.88;68.45
76384;SHT30;65204;48.606;7.598;2023-03-16T01:30:34;4.91;68.42
76384;SHT30;65204;48.606;7.598;2023-03-16T01:31:07;4.91;68.48
76384;SHT30;65204;48.606;7.598;2023-03-16T01:31:38;4.91;68.47
76384;SHT30;65204;48.606;7.598;2023-03-16T01:32:09;4.92;68.36
76384;SHT30;65204;48.606;7.598;2023-03-16T01:32:39;4.92;68.32
76384;SHT30;65204;48.606;7.598;2023-03-16T01:33:10;4.91;68.22
76384;SHT30;65204;48.606;7.598;2023-03-16T01:33:42;4.91;68.17
76384;SHT30;65204;48.606;7.598;2023-03-16T01:34:12;4.88;68.13
76384;SHT30;65204;48.606;7.598;2023-03-16T01:34:46;4.91;68.26
76384;SHT30;65204;48.606;7.598;2023-03-16T01:35:17;4.92;68.31
76384;SHT30;65204;48.606;7.598;2023-03-16T01:36:33;4.89;68.58
76384;SHT30;65204;48.606;7.598;2023-03-16T01:37:03;4.89;68.53
76384;SHT30;65204;48.606;7.598;2023-03-16T01:37:34;4.89;68.56
76384;SHT30;65204;48.606;7.598;2023-03-16T01:38:04;4.89;68.52
76384;SHT30;65204;48.606;7.598;2023-03-16T01:38:35;4.89;68.54
76384;SHT30;65204;48.606;7.598;2023-03-16T01:39:05;4.88;68.65
76384;SHT30;65204;48.606;7.598;2023-03-16T01:39:35;4.91;68.68
76384;SHT30;65204;48.606;7.598;2023-03-16T01:40:06;4.89;68.64
76384;SHT30;65204;48.606;7.598;2023-03-16T01:40:38;4.91;68.66
76384;SHT30;65204;48.606;7.598;2023-03-16T01:41:08;4.89;68.67
76384;SHT30;65204;48.606;7.598;2023-03-16T01:41:39;4.89;68.76
76384;SHT30;65204;48.606;7.598;2023-03-16T01:42:10;4.91;68.73
76384;SHT30;65204;48.606;7.598;2023-03-16T01:42:49;4.89;68.69
76384;SHT30;65204;48.606;7.598;2023-03-16T01:43:30;4.91;68.73
76384;SHT30;65204;48.606;7.598;2023-03-16T01:44:01;4.91;68.67
76384;SHT30;65204;48.606;7.598;2023-03-16T01:44:49;4.91;68.58
76384;SHT30;65204;48.606;7.598;2023-03-16T01:46:28;4.88;68.63
76384;SHT30;65204;48.606;7.598;2023-03-16T01:46:58;4.91;68.74
76384;SHT30;65204;48.606;7.598;2023-03-16T01:47:29;4.88;68.70
76384;SHT30;65204;48.606;7.598;2023-03-16T01:47:59;4.88;68.68
76384;SHT30;65204;48.606;7.598;2023-03-16T01:49:12;4.86;68.72
76384;SHT30;65204;48.606;7.598;2023-03-16T01:49:44;4.88;68.68
76384;SHT30;65204;48.606;7.598;2023-03-16T01:50:17;4.85;68.74
76384;SHT30;65204;48.606;7.598;2023-03-16T01:50:47;4.86;68.77
76384;SHT30;65204;48.606;7.598;2023-03-16T01:51:20;4.85;68.88
76384;SHT30;65204;48.606;7.598;2023-03-16T01:52:16;4.86;68.68
76384;SHT30;65204;48.606;7.598;2023-03-16T01:52:49;4.82;68.82
76384;SHT30;65204;48.606;7.598;2023-03-16T01:53:21;4.85;68.81
76384;SHT30;65204;48.606;7.598;2023-03-16T01:53:58;4.86;68.92
76384;SHT30;65204;48.606;7.598;2023-03-16T01:54:33;4.85;68.89
76384;SHT30;65204;48.606;7.598;2023-03-16T01:55:06;4.88;68.84
76384;SHT30;65204;48.606;7.598;2023-03-16T01:55:40;4.85;68.92
76384;SHT30;65204;48.606;7.598;2023-03-16T01:56:13;4.88;68.88
76384;SHT30;65204;48.606;7.598;2023-03-16T01:57:02;4.85;68.76
76384;SHT30;65204;48.606;7.598;2023-03-16T01:57:37;4.85;68.70
76384;SHT30;65204;48.606;7.598;2023-03-16T01:58:10;4.88;68.59
76384;SHT30;65204;48.606;7.598;2023-03-16T01:58:44;4.85;68.63
76384;SHT30;65204;48.606;7.598;2023-03-16T01:59:18;4.86;68.67
76384;SHT30;65204;48.606;7.598;2023-03-16T02:00:01;4.88;68.67
76384;SHT30;65204;48.606;7.598;2023-03-16T02:00:39;4.88;68.74
76384;SHT30;65204;48.606;7.598;2023-03-16T02:01:12;4.88;68.80
76384;SHT30;65204;48.606;7.598;2023-03-16T02:01:43;4.85;68.79
76384;SHT30;65204;48.606;7.598;2023-03-16T02:02:18;4.88;68.81
76384;SHT30;65204;48.606;7.598;2023-03-16T02:02:55;4.88;68.80
76384;SHT30;65204;48.606;7.598;2023-03-16T02:03:27;4.88;68.71
76384;SHT30;65204;48.606;7.598;2023-03-16T02:04:11;4.86;68.72
76384;SHT30;65204;48.606;7.598;2023-03-16T02:04:49;4.88;68.70
76384;SHT30;65204;48.606;7.598;2023-03-16T02:05:32;4.89;68.57
76384;SHT30;65204;48.606;7.598;2023-03-16T02:06:10;4.88;68.56
76384;SHT30;65204;48.606;7.598;2023-03-16T02:06:42;4.86;68.46
76384;SHT30;65204;48.606;7.598;2023-03-16T02:07:15;4.85;68.49
76384;SHT30;65204;48.606;7.598;2023-03-16T02:07:48;4.88;68.53
76384;SHT30;65204;48.606;7.598;2023-03-16T02:08:19;4.88;68.54
76384;SHT30;65204;48.606;7.598;2023-03-16T02:08:52;4.86;68.49
76384;SHT30;65204;48.606;7.598;2023-03-16T02:09:24;4.88;68.46
76384;SHT30;65204;48.606;7.598;2023-03-16T02:09:58;4.88;68.40
76384;SHT30;65204;48.606;7.598;2023-03-16T02:10:30;4.88;68.40
76384;SHT30;65204;48.606;7.598;2023-03-16T02:11:03;4.88;68.36
76384;SHT30;65204;48.606;7.598;2023-03-16T02:11:35;4.88;68.34
76384;SHT30;65204;48.606;7.598;2023-03-16T02:12:06;4.88;68.42
76384;SHT30;65204;48.606;7.598;2023-03-16T02:12:37;4.89;68.41
76384;SHT30;65204;48.606;7.598;2023-03-16T02:13:07;4.88;68.37
76384;SHT30;65204;48.606;7.598;2023-03-16T02:13:38;4.86;68.33
76384;SHT30;65204;48.606;7.598;2023-03-16T02:14:10;4.89;68.39
76384;SHT30;65204;48.606;7.598;2023-03-16T02:14:41;4.89;68.42
76384;SHT30;65204;48.606;7.598;2023-03-16T02:15:12;4.89;68.38
76384;SHT30;65204;48.606;7.598;2023-03-16T02:15:43;4.89;68.42
76384;SHT30;65204;48.606;7.598;2023-03-16T02:16:16;4.89;68.40
76384;SHT30;65204;48.606;7.598;2023-03-16T02:16:48;4.88;68.52
76384;SHT30;65204;48.606;7.598;2023-03-16T02:17:23;4.89;68.57
76384;SHT30;65204;48.606;7.598;2023-03-16T02:17:55;4.88;68.55
76384;SHT30;65204;48.606;7.598;2023-03-16T02:18:27;4.88;68.54
76384;SHT30;65204;48.606;7.598;2023-03-16T02:18:57;4.88;68.56
76384;SHT30;65204;48.606;7.598;2023-03-16T02:21:05;4.88;68.37
76384;SHT30;65204;48.606;7.598;2023-03-16T02:21:54;4.89;68.43
76384;SHT30;65204;48.606;7.598;2023-03-16T02:22:31;4.91;68.39
76384;SHT30;65204;48.606;7.598;2023-03-16T02:23:09;4.88;68.51
76384;SHT30;65204;48.606;7.598;2023-03-16T02:23:47;4.88;68.46
76384;SHT30;65204;48.606;7.598;2023-03-16T02:24:20;4.91;68.35
76384;SHT30;65204;48.606;7.598;2023-03-16T02:24:51;4.95;68.40
76384;SHT30;65204;48.606;7.598;2023-03-16T02:26:09;4.91;68.52
76384;SHT30;65204;48.606;7.598;2023-03-16T02:26:20;4.89;68.62
76384;SHT30;65204;48.606;7.598;2023-03-16T02:26:57;4.89;68.56
76384;SHT30;65204;48.606;7.598;2023-03-16T02:30:15;4.93;68.40
76384;SHT30;65204;48.606;7.598;2023-03-16T02:30:46;4.93;68.51
76384;SHT30;65204;48.606;7.598;2023-03-16T02:31:18;4.92;68.47
76384;SHT30;65204;48.606;7.598;2023-03-16T02:31:49;4.92;68.45
76384;SHT30;65204;48.606;7.598;2023-03-16T02:32:20;4.93;68.53
76384;SHT30;65204;48.606;7.598;2023-03-16T02:32:53;4.93;68.59
76384;SHT30;65204;48.606;7.598;2023-03-16T02:33:24;4.92;68.62
76384;SHT30;65204;48.606;7.598;2023-03-16T02:33:55;4.95;68.23
76384;SHT30;65204;48.606;7.598;2023-03-16T02:34:26;4.95;68.04
76384;SHT30;65204;48.606;7.598;2023-03-16T02:34:58;4.95;68.02
76384;SHT30;65204;48.606;7.598;2023-03-16T02:35:28;4.93;68.03
76384;SHT30;65204;48.606;7.598;2023-03-16T02:35:59;4.92;67.93
76384;SHT30;65204;48.606;7.598;2023-03-16T02:36:30;4.91;68.00
76384;SHT30;65204;48.606;7.598;2023-03-16T02:37:02;4.92;68.04
76384;SHT30;65204;48.606;7.598;2023-03-16T02:37:33;4.91;68.17
76384;SHT30;65204;48.606;7.598;2023-03-16T02:38:03;4.92;68.02
76384;SHT30;65204;48.606;7.598;2023-03-16T02:38:34;4.93;68.18
76384;SHT30;65204;48.606;7.598;2023-03-16T02:39:04;4.93;68.31
76384;SHT30;65204;48.606;7.598;2023-03-16T02:39:35;4.93;68.37
76384;SHT30;65204;48.606;7.598;2023-03-16T02:40:27;4.93;68.24
76384;SHT30;65204;48.606;7.598;2023-03-16T02:41:04;4.95;68.09
76384;SHT30;65204;48.606;7.598;2023-03-16T02:41:39;4.95;67.77
76384;SHT30;65204;48.606;7.598;2023-03-16T02:42:13;4.93;67.77
76384;SHT30;65204;48.606;7.598;2023-03-16T02:42:44;4.93;67.80
76384;SHT30;65204;48.606;7.598;2023-03-16T02:43:19;4.91;68.01
76384;SHT30;65204;48.606;7.598;2023-03-16T02:44:06;4.92;68.01
76384;SHT30;65204;48.606;7.598;2023-03-16T02:44:40;4.89;68.06
76384;SHT30;65204;48.606;7.598;2023-03-16T02:45:13;4.88;68.09
76384;SHT30;65204;48.606;7.598;2023-03-16T02:45:56;4.91;68.08
76384;SHT30;65204;48.606;7.598;2023-03-16T02:46:27;4.88;68.08
76384;SHT30;65204;48.606;7.598;2023-03-16T02:47:02;4.89;67.86
76384;SHT30;65204;48.606;7.598;2023-03-16T02:47:39;4.93;67.64
76384;SHT30;65204;48.606;7.598;2023-03-16T02:48:19;4.92;67.64
76384;SHT30;65204;48.606;7.598;2023-03-16T02:49:13;4.86;67.51
76384;SHT30;65204;48.606;7.598;2023-03-16T02:49:45;4.89;67.59
76384;SHT30;65204;48.606;7.598;2023-03-16T02:50:15;4.88;67.48
76384;SHT30;65204;48.606;7.598;2023-03-16T02:50:48;4.85;67.60
76384;SHT30;65204;48.606;7.598;2023-03-16T02:51:19;4.84;67.39
76384;SHT30;65204;48.606;7.598;2023-03-16T02:51:50;4.79;67.40
76384;SHT30;65204;48.606;7.598;2023-03-16T02:52:20;4.75;67.50
76384;SHT30;65204;48.606;7.598;2023-03-16T02:52:50;4.75;67.59
76384;SHT30;65204;48.606;7.598;2023-03-16T02:53:21;4.74;67.49
76384;SHT30;65204;48.606;7.598;2023-03-16T02:53:51;4.75;67.58
76384;SHT30;65204;48.606;7.598;2023-03-16T02:54:22;4.74;67.54
76384;SHT30;65204;48.606;7.598;2023-03-16T02:54:53;4.74;67.38
76384;SHT30;65204;48.606;7.598;2023-03-16T02:55:23;4.69;67.35
76384;SHT30;65204;48.606;7.598;2023-03-16T02:55:54;4.67;67.42
76384;SHT30;65204;48.606;7.598;2023-03-16T02:56:24;4.67;67.67
76384;SHT30;65204;48.606;7.598;2023-03-16T02:56:54;4.65;67.71
76384;SHT30;65204;48.606;7.598;2023-03-16T02:57:25;4.62;67.87
76384;SHT30;65204;48.606;7.598;2023-03-16T02:57:55;4.64;67.94
76384;SHT30;65204;48.606;7.598;2023-03-16T02:58:25;4.58;68.01
76384;SHT30;65204;48.606;7.598;2023-03-16T02:58:56;4.54;68.16
76384;SHT30;65204;48.606;7.598;2023-03-16T02:59:26;4.55;68.23
76384;SHT30;65204;48.606;7.598;2023-03-16T02:59:57;4.55;68.24
76384;SHT30;65204;48.606;7.598;2023-03-16T03:00:27;4.54;68.23
76384;SHT30;65204;48.606;7.598;2023-03-16T03:00:58;4.52;68.13
76384;SHT30;65204;48.606;7.598;2023-03-16T03:01:29;4.52;68.08
76384;SHT30;65204;48.606;7.598;2023-03-16T03:02:01;4.52;68.25
76384;SHT30;65204;48.606;7.598;2023-03-16T03:02:31;4.52;68.22
76384;SHT30;65204;48.606;7.598;2023-03-16T03:03:01;4.51;68.03
76384;SHT30;65204;48.606;7.598;2023-03-16T03:03:32;4.54;67.75
76384;SHT30;65204;48.606;7.598;2023-03-16T03:04:04;4.55;67.45
76384;SHT30;65204;48.606;7.598;2023-03-16T03:04:34;4.52;67.42
76384;SHT30;65204;48.606;7.598;2023-03-16T03:05:05;4.50;67.43
76384;SHT30;65204;48.606;7.598;2023-03-16T03:05:36;4.50;67.51
76384;SHT30;65204;48.606;7.598;2023-03-16T03:06:07;4.48;67.59
76384;SHT30;65204;48.606;7.598;2023-03-16T03:06:37;4.45;67.52
76384;SHT30;65204;48.606;7.598;2023-03-16T03:07:08;4.47;67.63
76384;SHT30;65204;48.606;7.598;2023-03-16T03:07:38;4.48;67.62
76384;SHT30;65204;48.606;7.598;2023-03-16T03:08:09;4.45;67.63
76384;SHT30;65204;48.606;7.598;2023-03-16T03:08:39;4.47;67.63
76384;SHT30;65204;48.606;7.598;2023-03-16T03:09:10;4.44;67.51
76384;SHT30;65204;48.606;7.598;2023-03-16T03:09:41;4.44;67.63
76384;SHT30;65204;48.606;7.598;2023-03-16T03:10:11;4.43;67.67
76384;SHT30;65204;48.606;7.598;2023-03-16T03:10:42;4.43;67.75
76384;SHT30;65204;48.606;7.598;2023-03-16T03:11:12;4.40;67.78
76384;SHT30;65204;48.606;7.598;2023-03-16T03:11:44;4.38;67.90
76384;SHT30;65204;48.606;7.598;2023-03-16T03:12:15;4.38;67.97
76384;SHT30;65204;48.606;7.598;2023-03-16T03:12:46;4.41;68.00
76384;SHT30;65204;48.606;7.598;2023-03-16T03:13:18;4.40;68.10
76384;SHT30;65204;48.606;7.598;2023-03-16T03:13:49;4.41;68.00
76384;SHT30;65204;48.606;7.598;2023-03-16T03:14:19;4.41;68.06
76384;SHT30;65204;48.606;7.598;2023-03-16T03:14:50;4.40;68.12
76384;SHT30;65204;48.606;7.598;2023-03-16T03:15:20;4.40;68.17
76384;SHT30;65204;48.606;7.598;2023-03-16T03:15:50;4.38;68.42
76384;SHT30;65204;48.606;7.598;2023-03-16T03:16:22;4.40;68.51
76384;SHT30;65204;48.606;7.598;2023-03-16T03:16:52;4.40;68.80
76384;SHT30;65204;48.606;7.598;2023-03-16T03:17:23;4.40;68.98
76384;SHT30;65204;48.606;7.598;2023-03-16T03:17:59;4.41;69.06
76384;SHT30;65204;48.606;7.598;2023-03-16T03:18:29;4.38;69.35
76384;SHT30;65204;48.606;7.598;2023-03-16T03:19:00;4.40;69.28
76384;SHT30;65204;48.606;7.598;2023-03-16T03:19:30;4.40;69.43
76384;SHT30;65204;48.606;7.598;2023-03-16T03:20:03;4.38;69.47
76384;SHT30;65204;48.606;7.598;2023-03-16T03:20:42;4.44;69.61
76384;SHT30;65204;48.606;7.598;2023-03-16T03:21:13;4.43;69.70
76384;SHT30;65204;48.606;7.598;2023-03-16T03:21:43;4.41;69.68
76384;SHT30;65204;48.606;7.598;2023-03-16T03:22:14;4.38;69.68
76384;SHT30;65204;48.606;7.598;2023-03-16T03:22:48;4.43;69.67
76384;SHT30;65204;48.606;7.598;2023-03-16T03:23:19;4.43;69.70
76384;SHT30;65204;48.606;7.598;2023-03-16T03:23:49;4.40;69.77
76384;SHT30;65204;48.606;7.598;2023-03-16T03:24:20;4.41;69.82
76384;SHT30;65204;48.606;7.598;2023-03-16T03:24:52;4.44;69.83
76384;SHT30;65204;48.606;7.598;2023-03-16T03:25:22;4.44;69.76
76384;SHT30;65204;48.606;7.598;2023-03-16T03:25:56;4.43;69.77
76384;SHT30;65204;48.606;7.598;2023-03-16T03:26:27;4.45;69.73
76384;SHT30;65204;48.606;7.598;2023-03-16T03:26:58;4.44;69.72
76384;SHT30;65204;48.606;7.598;2023-03-16T03:27:35;4.44;69.72
76384;SHT30;65204;48.606;7.598;2023-03-16T03:28:05;4.44;69.79
76384;SHT30;65204;48.606;7.598;2023-03-16T03:28:35;4.45;69.79
76384;SHT30;65204;48.606;7.598;2023-03-16T03:29:06;4.47;69.68
76384;SHT30;65204;48.606;7.598;2023-03-16T03:29:36;4.44;69.61
76384;SHT30;65204;48.606;7.598;2023-03-16T03:30:12;4.43;69.60
76384;SHT30;65204;48.606;7.598;2023-03-16T03:30:42;4.44;69.59
76384;SHT30;65204;48.606;7.598;2023-03-16T03:31:17;4.47;69.64
76384;SHT30;65204;48.606;7.598;2023-03-16T03:31:48;4.45;69.61
76384;SHT30;65204;48.606;7.598;2023-03-16T03:32:18;4.44;69.75
76384;SHT30;65204;48.606;7.598;2023-03-16T03:32:48;4.47;69.66